< < Back
Terminal Aerodrome Forecast


Current Version              Previous Versions:   1  2  3  4  5  6  7  8  9  

Terminal Aerodrome Forecast

544
FTUS42 KJAX 281300 AAA
TAFGNV
TAF AMD
KGNV 281338Z 2814/2912 26010G20KT P6SM SCT030 SCT250
     FM281500 26010G18KT P6SM VCSH SCT030 SCT250
      TEMPO 2815/2819 VRB15G25KT 4SM SHRA BKN030
     FM290200 25010KT P6SM SCT030 BKN250=

Latest METAR

349
SAUS70 KWBC 282000 RRF
MTRGNV
METAR KGNV 281953Z 27018G24KT 10SM VCTS FEW037 SCT044 SCT055 33/24 A2995
RMK AO2 LTG DSNT NE AND E SLP136 T03280244


USA.gov is the U.S. government's official web portal to all federal, state and local government web resources and services.